Wetterdaten: Woche 12.10.09 - 18.10.09 (KW42)
Datum Zeit Temp. A. Feuchte A. Luftdruck Regen Wind Richtung Taupunkt Windchill Windben
12.10.2009 00:00 11,4 C 77 % 1009,9 hPa 0,0 l/m 0,0 km/h N 7,5 C 11,4 C 1,0 km/h
12.10.2009 01:00 11,6 C 76 % 1008,9 hPa 0,0 l/m 0,2 km/h N 7,5 C 11,6 C 2,8 km/h
12.10.2009 02:00 12,5 C 69 % 1007,9 hPa 0,0 l/m 0,9 km/h SO 7,0 C 12,5 C 7,2 km/h
12.10.2009 03:00 14,4 C 59 % 1006,4 hPa 0,0 l/m 7,4 km/h SW 6,6 C 13,8 C 24,5 km/h
12.10.2009 04:00 14,2 C 62 % 1005,1 hPa 0,0 l/m 7,1 km/h SW 7,1 C 13,5 C 21,3 km/h
12.10.2009 05:00 13,9 C 64 % 1003,7 hPa 0,0 l/m 4,7 km/h S-SO 7,2 C 13,7 C 15,7 km/h
12.10.2009 06:00 12,6 C 71 % 1003,0 hPa 0,0 l/m 2,1 km/h N 7,5 C 12,6 C 7,3 km/h
12.10.2009 07:00 11,1 C 84 % 1002,6 hPa 1,8 l/m 0,0 km/h N 8,4 C 11,1 C 4,8 km/h
12.10.2009 08:00 10,6 C 91 % 1002,2 hPa 1,2 l/m 0,0 km/h N-NW 9,1 C 10,6 C 0,0 km/h
12.10.2009 09:00 10,6 C 91 % 1004,2 hPa 2,7 l/m 4,0 km/h NW 9,1 C 10,6 C 19,3 km/h
12.10.2009 10:00 10,3 C 82 % 1004,5 hPa 0,3 l/m 8,9 km/h NW 7,3 C 8,6 C 33,0 km/h
12.10.2009 11:00 10,3 C 78 % 1005,9 hPa 0,0 l/m 8,9 km/h NW 6,6 C 8,6 C 29,0 km/h
12.10.2009 12:00 10,4 C 78 % 1006,8 hPa 0,0 l/m 5,6 km/h NW 6,7 C 10,4 C 21,7 km/h
12.10.2009 13:00 10,6 C 77 % 1006,6 hPa 0,0 l/m 6,4 km/h NW 6,8 C 10,7 C 23,3 km/h
12.10.2009 14:00 10,4 C 79 % 1006,7 hPa 0,3 l/m 7,2 km/h NW 6,9 C 9,9 C 24,1 km/h
12.10.2009 15:00 10,4 C 81 % 1006,6 hPa 0,0 l/m 4,0 km/h NW 7,1 C 10,4 C 14,5 km/h
12.10.2009 16:00 10,6 C 80 % 1007,0 hPa 0,0 l/m 4,0 km/h NW 7,2 C 10,6 C 12,9 km/h
12.10.2009 17:00 10,3 C 75 % 1008,0 hPa 0,0 l/m 5,8 km/h NW 6,1 C 9,9 C 17,7 km/h
12.10.2009 18:00 9,6 C 80 % 1009,0 hPa 0,0 l/m 3,8 km/h N-NW 6,3 C 9,6 C 12,9 km/h
12.10.2009 19:00 9,6 C 79 % 1009,4 hPa 0,0 l/m 6,1 km/h NW 6,2 C 9,2 C 17,3 km/h
12.10.2009 20:00 9,3 C 78 % 1010,3 hPa 0,0 l/m 9,5 km/h NW 5,7 C 7,1 C 19,7 km/h
12.10.2009 21:00 9,0 C 77 % 1010,9 hPa 0,0 l/m 9,7 km/h W 5,2 C 6,7 C 24,1 km/h
12.10.2009 22:00 8,7 C 75 % 1011,8 hPa 0,0 l/m 11,3 km/h N-NW 4,5 C 5,4 C 25,3 km/h
12.10.2009 23:00 8,2 C 74 % 1012,0 hPa 0,0 l/m 11,8 km/h N-NW 3,8 C 4,6 C 26,1 km/h
13.10.2009 00:00 7,9 C 73 % 1012,5 hPa 0,0 l/m 11,6 km/h NW 3,2 C 4,3 C 29,8 km/h
13.10.2009 01:00 7,6 C 72 % 1012,9 hPa 0,0 l/m 13,9 km/h NW 2,9 C 2,8 C 33,4 km/h
13.10.2009 02:00 7,3 C 73 % 1013,2 hPa 0,0 l/m 14,0 km/h NO 2,8 C 2,4 C 33,4 km/h
13.10.2009 03:00 6,9 C 71 % 1013,8 hPa 0,0 l/m 15,1 km/h W 2,0 C 1,3 C 33,0 km/h
13.10.2009 04:00 6,2 C 68 % 1014,5 hPa 0,0 l/m 15,6 km/h N-NW 0,8 C 0,3 C 33,4 km/h
13.10.2009 05:00 6,0 C 71 % 1015,0 hPa 0,0 l/m 13,0 km/h N-NW 1,1 C 1,4 C 30,2 km/h
13.10.2009 06:00 5,4 C 74 % 1015,4 hPa 0,0 l/m 11,3 km/h W-NW 1,1 C 1,7 C 26,6 km/h
13.10.2009 07:00 5,4 C 71 % 1015,7 hPa 0,0 l/m 13,1 km/h O-NO 0,6 C 0,6 C 32,6 km/h
13.10.2009 08:00 5,7 C 70 % 1016,2 hPa 0,0 l/m 12,1 km/h N-NW 0,7 C 1,5 C 30,6 km/h
13.10.2009 09:00 6,6 C 66 % 1016,2 hPa 0,0 l/m 12,3 km/h N-NO 0,7 C 2,4 C 31,0 km/h
13.10.2009 10:00 7,6 C 62 % 1015,9 hPa 0,0 l/m 16,5 km/h N-NO 0,7 C 1,6 C 37,4 km/h
13.10.2009 11:00 7,9 C 59 % 1015,8 hPa 0,0 l/m 16,9 km/h N-NW 0,4 C 1,8 C 32,2 km/h
13.10.2009 12:00 8,7 C 57 % 1015,5 hPa 0,0 l/m 15,9 km/h NW 0,5 C 3,2 C 35,0 km/h
13.10.2009 13:00 8,4 C 56 % 1015,3 hPa 0,0 l/m 15,8 km/h N-NW 0,1 C 2,9 C 33,8 km/h
13.10.2009 14:00 9,0 C 52 % 1015,1 hPa 0,0 l/m 16,7 km/h N-NW -0,3 C 3,2 C 36,6 km/h
13.10.2009 15:00 9,1 C 52 % 1015,1 hPa 0,0 l/m 14,6 km/h N-NO -0,1 C 4,3 C 30,6 km/h
13.10.2009 16:00 8,2 C 56 % 1015,3 hPa 0,0 l/m 12,3 km/h NW -0,1 C 4,3 C 29,4 km/h
13.10.2009 17:00 7,1 C 67 % 1015,8 hPa 0,0 l/m 7,5 km/h N-NW 1,3 C 6,2 C 21,3 km/h
13.10.2009 18:00 6,2 C 70 % 1016,3 hPa 0,0 l/m 7,8 km/h NW 1,2 C 5,0 C 23,7 km/h
13.10.2009 19:00 5,3 C 72 % 1016,8 hPa 0,0 l/m 7,4 km/h NW 0,6 C 4,3 C 20,1 km/h
13.10.2009 20:00 5,1 C 73 % 1016,9 hPa 0,0 l/m 7,7 km/h NW 0,7 C 4,0 C 20,5 km/h
13.10.2009 21:00 5,1 C 73 % 1017,4 hPa 0,0 l/m 8,0 km/h N-NW 0,5 C 3,7 C 20,5 km/h
13.10.2009 22:00 4,8 C 72 % 1017,4 hPa 0,0 l/m 8,2 km/h NW 0,2 C 3,2 C 23,7 km/h
13.10.2009 23:00 4,5 C 72 % 1017,5 hPa 0,0 l/m 5,4 km/h N-NW -0,2 C 4,4 C 20,1 km/h
14.10.2009 00:00 4,6 C 71 % 1017,4 hPa 0,0 l/m 6,3 km/h N-NW -0,2 C 4,3 C 21,7 km/h
14.10.2009 01:00 4,6 C 71 % 1017,6 hPa 0,0 l/m 6,4 km/h NW -0,1 C 4,4 C 20,1 km/h
14.10.2009 02:00 4,6 C 71 % 1017,5 hPa 0,0 l/m 7,0 km/h N-NO -0,2 C 3,9 C 20,5 km/h
14.10.2009 03:00 4,3 C 72 % 1017,2 hPa 0,0 l/m 7,0 km/h NW -0,3 C 3,4 C 20,1 km/h
14.10.2009 04:00 4,2 C 72 % 1017,2 hPa 0,0 l/m 8,6 km/h N-NW -0,4 C 2,3 C 23,3 km/h
14.10.2009 05:00 4,1 C 72 % 1017,2 hPa 0,0 l/m 7,9 km/h NW -0,6 C 2,7 C 22,9 km/h
14.10.2009 06:00 4,2 C 70 % 1017,1 hPa 0,0 l/m 7,8 km/h NW -0,8 C 3,0 C 27,4 km/h
14.10.2009 07:00 4,2 C 69 % 1017,3 hPa 0,0 l/m 9,5 km/h N-NW -0,9 C 1,6 C 28,6 km/h
14.10.2009 08:00 4,3 C 69 % 1017,0 hPa 0,0 l/m 8,5 km/h W-SW -0,8 C 2,5 C 24,9 km/h
14.10.2009 09:00 4,8 C 68 % 1017,0 hPa 0,0 l/m 11,8 km/h N-NO -0,5 C 0,8 C 31,0 km/h
14.10.2009 10:00 5,8 C 64 % 1017,1 hPa 0,0 l/m 10,8 km/h W-NW -0,6 C 2,4 C 31,4 km/h
14.10.2009 11:00 6,2 C 61 % 1017,0 hPa 0,0 l/m 14,5 km/h N -0,7 C 0,8 C 32,6 km/h
14.10.2009 12:00 6,1 C 60 % 1016,9 hPa 0,0 l/m 14,1 km/h W-NW -1,1 C 1,0 C 35,4 km/h
14.10.2009 13:00 5,9 C 59 % 1017,0 hPa 0,0 l/m 12,0 km/h NW -1,4 C 1,9 C 29,8 km/h
14.10.2009 14:00 6,0 C 58 % 1016,9 hPa 0,0 l/m 14,2 km/h NW -1,6 C 0,8 C 37,0 km/h
14.10.2009 15:00 5,6 C 61 % 1017,0 hPa 0,0 l/m 12,9 km/h N-NO -1,3 C 0,9 C 33,0 km/h
14.10.2009 16:00 4,8 C 66 % 1017,2 hPa 0,0 l/m 11,7 km/h NW -0,9 C 0,8 C 33,0 km/h
14.10.2009 17:00 4,6 C 68 % 1017,3 hPa 0,0 l/m 11,6 km/h W-NW -0,9 C 0,5 C 32,6 km/h
14.10.2009 18:00 4,4 C 66 % 1017,5 hPa 0,0 l/m 9,0 km/h NW -1,3 C 2,3 C 27,0 km/h
14.10.2009 19:00 4,6 C 63 % 1017,5 hPa 0,0 l/m 12,1 km/h W -1,8 C 0,3 C 36,6 km/h
14.10.2009 20:00 4,5 C 64 % 1017,3 hPa 0,0 l/m 10,8 km/h NW -1,6 C 1,0 C 34,2 km/h
14.10.2009 21:00 3,9 C 71 % 1017,1 hPa 0,0 l/m 13,4 km/h W-NW -0,9 C -1,3 C 34,6 km/h
14.10.2009 22:00 3,7 C 72 % 1016,8 hPa 0,0 l/m 11,0 km/h N-NW -0,9 C -0,1 C 33,0 km/h
14.10.2009 23:00 4,0 C 69 % 1016,5 hPa 0,0 l/m 12,1 km/h S-SO -1,2 C -0,4 C 35,4 km/h
15.10.2009 00:00 4,1 C 67 % 1016,6 hPa 0,0 l/m 11,4 km/h N-NW -1,4 C 0,2 C 29,0 km/h
15.10.2009 01:00 3,5 C 72 % 1016,5 hPa 0,0 l/m 9,6 km/h W-SW -1,0 C 0,7 C 33,4 km/h
15.10.2009 02:00 3,3 C 73 % 1016,4 hPa 0,3 l/m 8,0 km/h S-SO -1,0 C 1,9 C 27,4 km/h
15.10.2009 03:00 3,1 C 74 % 1016,5 hPa 0,0 l/m 6,9 km/h W -1,0 C 2,6 C 24,9 km/h
15.10.2009 04:00 3,0 C 76 % 1016,3 hPa 0,0 l/m 8,8 km/h NW -0,9 C 0,8 C 33,0 km/h
15.10.2009 05:00 2,4 C 81 % 1016,3 hPa 0,0 l/m 10,0 km/h SW -0,6 C -0,8 C 35,0 km/h
15.10.2009 06:00 1,8 C 84 % 1016,5 hPa 0,0 l/m 7,8 km/h SW -0,5 C 0,5 C 25,7 km/h
15.10.2009 07:00 1,9 C 85 % 1016,7 hPa 0,0 l/m 9,9 km/h NW -0,4 C -1,3 C 32,2 km/h
15.10.2009 08:00 2,0 C 85 % 1017,2 hPa 0,0 l/m 10,2 km/h SW -0,3 C -1,4 C 31,0 km/h
15.10.2009 09:00 1,9 C 85 % 1017,6 hPa 0,0 l/m 10,5 km/h W -0,3 C -1,7 C 33,0 km/h
15.10.2009 10:00 2,3 C 84 % 1017,9 hPa 0,0 l/m 11,5 km/h SW -0,2 C -2,0 C 34,6 km/h
15.10.2009 11:00 2,8 C 81 % 1017,8 hPa 0,0 l/m 11,9 km/h W-NW -0,2 C -1,7 C 32,2 km/h
15.10.2009 12:00 3,8 C 73 % 1018,0 hPa 0,0 l/m 11,4 km/h W-NW -0,5 C -0,2 C 36,2 km/h
15.10.2009 13:00 4,0 C 74 % 1017,8 hPa 0,0 l/m 10,6 km/h NW -0,3 C 0,5 C 29,4 km/h
15.10.2009 14:00 4,9 C 67 % 1018,0 hPa 0,0 l/m 10,0 km/h S-SO -0,7 C 2,0 C 34,6 km/h
15.10.2009 15:00 5,1 C 63 % 1018,2 hPa 0,0 l/m 10,4 km/h W-SW -1,4 C 1,9 C 30,6 km/h
15.10.2009 16:00 4,1 C 72 % 1018,6 hPa 0,0 l/m 9,5 km/h SW -0,6 C 1,4 C 31,8 km/h
15.10.2009 17:00 3,4 C 77 % 1018,8 hPa 0,0 l/m 9,8 km/h NW -0,3 C 0,4 C 33,8 km/h
15.10.2009 18:00 3,1 C 77 % 1019,3 hPa 0,0 l/m 6,9 km/h S-SO -0,5 C 2,4 C 26,5 km/h
15.10.2009 19:00 3,2 C 76 % 1019,8 hPa 0,0 l/m 8,0 km/h S -0,6 C 1,8 C 29,4 km/h
15.10.2009 20:00 3,2 C 77 % 1020,0 hPa 0,0 l/m 9,2 km/h W-SW -0,5 C 0,6 C 29,0 km/h
15.10.2009 21:00 3,2 C 76 % 1020,1 hPa 0,0 l/m 8,9 km/h W -0,7 C 0,9 C 28,5 km/h
15.10.2009 22:00 3,3 C 74 % 1020,1 hPa 0,0 l/m 10,0 km/h W-SW -0,9 C 0,2 C 32,6 km/h
15.10.2009 23:00 3,3 C 75 % 1020,5 hPa 0,0 l/m 10,5 km/h W -0,7 C -0,1 C 35,8 km/h
16.10.2009 00:00 2,8 C 79 % 1020,8 hPa 0,0 l/m 8,3 km/h S-SO -0,6 C 1,0 C 29,4 km/h
16.10.2009 01:00 3,2 C 76 % 1020,5 hPa 0,0 l/m 9,1 km/h W -0,7 C 0,8 C 27,4 km/h
16.10.2009 02:00 3,2 C 75 % 1020,4 hPa 0,0 l/m 9,0 km/h S-SW -0,9 C 0,8 C 29,4 km/h
16.10.2009 03:00 3,4 C 72 % 1020,1 hPa 0,0 l/m 9,2 km/h W -1,1 C 0,9 C 32,6 km/h
16.10.2009 04:00 3,4 C 72 % 1019,8 hPa 0,0 l/m 9,1 km/h W-SW -1,1 C 1,2 C 28,2 km/h
16.10.2009 05:00 3,6 C 71 % 1019,8 hPa 0,0 l/m 7,4 km/h S -1,2 C 2,6 C 30,2 km/h
16.10.2009 06:00 3,8 C 71 % 1019,7 hPa 0,0 l/m 8,6 km/h NW -1,0 C 1,8 C 30,6 km/h
16.10.2009 07:00 3,8 C 72 % 1019,4 hPa 0,0 l/m 9,5 km/h W -0,7 C 1,1 C 30,2 km/h
16.10.2009 08:00 4,1 C 73 % 1019,3 hPa 0,0 l/m 9,5 km/h W -0,4 C 1,6 C 33,8 km/h
16.10.2009 09:00 4,3 C 74 % 1019,1 hPa 0,0 l/m 9,3 km/h NW 0,1 C 1,8 C 32,2 km/h
16.10.2009 10:00 4,4 C 75 % 1018,8 hPa 0,0 l/m 6,8 km/h SW 0,3 C 3,6 C 28,6 km/h
16.10.2009 11:00 5,2 C 68 % 1018,1 hPa 0,0 l/m 7,4 km/h SO -0,2 C 4,1 C 28,6 km/h
16.10.2009 12:00 5,4 C 67 % 1017,7 hPa 0,0 l/m 9,7 km/h W -0,2 C 2,8 C 30,6 km/h
16.10.2009 13:00 5,6 C 70 % 1017,0 hPa 0,0 l/m 5,7 km/h W-SW 0,6 C 5,6 C 21,3 km/h
16.10.2009 14:00 5,9 C 69 % 1016,5 hPa 0,0 l/m 5,6 km/h SW 0,7 C 5,6 C 23,8 km/h
16.10.2009 15:00 6,3 C 63 % 1015,4 hPa 0,0 l/m 5,3 km/h W -0,2 C 6,2 C 21,3 km/h
16.10.2009 16:00 6,3 C 62 % 1015,5 hPa 0,0 l/m 7,2 km/h W -0,4 C 5,0 C 27,0 km/h
16.10.2009 17:00 4,7 C 76 % 1015,2 hPa 0,0 l/m 2,2 km/h S 0,8 C 4,7 C 8,4 km/h
16.10.2009 18:00 4,1 C 81 % 1015,3 hPa 0,0 l/m 0,9 km/h S 1,2 C 4,1 C 5,6 km/h
16.10.2009 19:00 3,8 C 83 % 1014,8 hPa 0,0 l/m 2,9 km/h S 1,2 C 3,8 C 13,7 km/h
16.10.2009 20:00 3,8 C 85 % 1014,6 hPa 0,0 l/m 2,0 km/h S-SW 1,4 C 3,8 C 11,2 km/h
16.10.2009 21:00 4,9 C 81 % 1014,0 hPa 0,0 l/m 6,8 km/h SW 1,9 C 4,3 C 26,6 km/h
16.10.2009 22:00 5,5 C 77 % 1013,5 hPa 0,0 l/m 8,0 km/h W-SW 1,8 C 4,1 C 26,6 km/h
16.10.2009 23:00 5,9 C 78 % 1013,3 hPa 0,0 l/m 6,2 km/h S-SW 2,3 C 5,5 C 22,5 km/h
17.10.2009 00:00 6,2 C 79 % 1012,9 hPa 0,0 l/m 4,5 km/h SW 2,8 C 6,2 C 19,3 km/h
17.10.2009 01:00 6,7 C 75 % 1013,0 hPa 0,0 l/m 4,7 km/h W-SW 2,6 C 6,7 C 21,7 km/h
17.10.2009 02:00 6,6 C 75 % 1012,9 hPa 0,0 l/m 5,1 km/h SW 2,5 C 6,6 C 19,7 km/h
17.10.2009 03:00 6,6 C 76 % 1012,8 hPa 0,0 l/m 4,8 km/h S-SW 2,6 C 6,6 C 22,5 km/h
17.10.2009 04:00 6,3 C 77 % 1012,8 hPa 0,0 l/m 3,0 km/h W-SW 2,6 C 6,3 C 14,9 km/h
17.10.2009 05:00 6,3 C 79 % 1013,1 hPa 0,0 l/m 2,8 km/h W 2,9 C 6,3 C 14,9 km/h
17.10.2009 06:00 6,3 C 79 % 1013,3 hPa 0,0 l/m 3,0 km/h N-NO 2,9 C 6,3 C 12,5 km/h
17.10.2009 07:00 6,1 C 78 % 1014,1 hPa 0,0 l/m 4,1 km/h NW 2,4 C 6,1 C 12,9 km/h
17.10.2009 08:00 5,3 C 77 % 1015,1 hPa 0,0 l/m 3,5 km/h NW 1,6 C 5,3 C 10,9 km/h
17.10.2009 09:00 5,1 C 79 % 1015,6 hPa 0,0 l/m 4,3 km/h NW 1,8 C 5,1 C 10,9 km/h
17.10.2009 10:00 5,8 C 78 % 1016,0 hPa 0,0 l/m 3,1 km/h NW 2,2 C 5,8 C 8,1 km/h
17.10.2009 11:00 6,0 C 76 % 1016,3 hPa 0,0 l/m 4,4 km/h NW 2,1 C 6,0 C 11,3 km/h
17.10.2009 12:00 6,7 C 73 % 1016,1 hPa 0,0 l/m 4,2 km/h NW 2,1 C 6,7 C 10,5 km/h
17.10.2009 13:00 7,1 C 72 % 1016,1 hPa 0,0 l/m 2,9 km/h N-NW 2,5 C 7,1 C 8,0 km/h
17.10.2009 14:00 6,7 C 75 % 1016,2 hPa 0,0 l/m 2,0 km/h W-NW 2,6 C 6,7 C 7,6 km/h
17.10.2009 15:00 6,8 C 74 % 1016,3 hPa 0,0 l/m 1,4 km/h SW 2,5 C 6,8 C 7,2 km/h
17.10.2009 16:00 6,6 C 76 % 1016,6 hPa 0,0 l/m 1,8 km/h S-SW 2,6 C 6,6 C 8,0 km/h
17.10.2009 17:00 6,4 C 77 % 1016,9 hPa 0,0 l/m 1,0 km/h N 2,6 C 6,4 C 5,2 km/h
17.10.2009 18:00 5,8 C 79 % 1017,4 hPa 0,0 l/m 1,1 km/h S 2,4 C 5,8 C 5,2 km/h
17.10.2009 19:00 5,1 C 82 % 1017,8 hPa 0,0 l/m 1,1 km/h NW 2,3 C 5,1 C 3,6 km/h
17.10.2009 20:00 4,9 C 84 % 1018,3 hPa 0,0 l/m 0,0 km/h N 2,5 C 4,9 C 1,6 km/h
17.10.2009 21:00 4,8 C 85 % 1018,4 hPa 0,0 l/m 0,2 km/h N 2,5 C 4,8 C 3,2 km/h
17.10.2009 22:00 4,6 C 86 % 1018,6 hPa 0,0 l/m 0,1 km/h N 2,4 C 4,6 C 2,0 km/h
17.10.2009 23:00 4,4 C 86 % 1018,7 hPa 0,0 l/m 0,1 km/h N 2,3 C 4,4 C 2,4 km/h
18.10.2009 00:00 4,2 C 90 % 1018,7 hPa 0,0 l/m 0,3 km/h N 2,6 C 4,2 C 3,2 km/h
18.10.2009 01:00 4,1 C 88 % 1018,6 hPa 0,0 l/m 0,0 km/h N 2,2 C 4,1 C 1,2 km/h
18.10.2009 02:00 4,2 C 88 % 1018,4 hPa 0,0 l/m 0,4 km/h N 2,4 C 4,2 C 2,4 km/h
18.10.2009 03:00 4,2 C 88 % 1018,4 hPa 0,0 l/m 0,0 km/h N 2,3 C 4,2 C 0,8 km/h
18.10.2009 04:00 4,0 C 88 % 1018,5 hPa 0,0 l/m 0,0 km/h N 2,2 C 4,0 C 0,0 km/h
18.10.2009 05:00 3,9 C 88 % 1018,4 hPa 0,0 l/m 0,0 km/h N 2,1 C 3,9 C 0,4 km/h
18.10.2009 06:00 4,1 C 88 % 1018,3 hPa 0,0 l/m 0,3 km/h N 2,3 C 4,1 C 2,4 km/h
18.10.2009 07:00 4,3 C 89 % 1018,5 hPa 0,0 l/m 0,5 km/h W-NW 2,5 C 4,3 C 2,4 km/h
18.10.2009 08:00 4,4 C 88 % 1018,9 hPa 0,0 l/m 0,6 km/h N 2,6 C 4,4 C 3,2 km/h
18.10.2009 09:00 5,2 C 86 % 1019,1 hPa 0,0 l/m 1,2 km/h N-NW 3,0 C 5,2 C 4,8 km/h
18.10.2009 10:00 6,5 C 80 % 1019,0 hPa 0,0 l/m 3,1 km/h NW 3,3 C 6,5 C 10,5 km/h
18.10.2009 11:00 6,5 C 77 % 1018,9 hPa 0,0 l/m 3,3 km/h N-NW 2,8 C 6,5 C 8,9 km/h
18.10.2009 12:00 7,1 C 76 % 1018,6 hPa 0,0 l/m 2,3 km/h N-NW 3,1 C 7,1 C 6,8 km/h
18.10.2009 13:00 8,0 C 73 % 1018,2 hPa 0,0 l/m 2,5 km/h N-NO 3,4 C 8,0 C 8,0 km/h
18.10.2009 14:00 7,3 C 75 % 1018,2 hPa 0,0 l/m 2,6 km/h NW 3,1 C 7,3 C 10,5 km/h
18.10.2009 15:00 7,0 C 75 % 1018,2 hPa 0,0 l/m 1,7 km/h NW 2,8 C 7,0 C 7,2 km/h
18.10.2009 16:00 6,7 C 77 % 1018,3 hPa 0,0 l/m 1,6 km/h NW 3,0 C 6,7 C 5,6 km/h
18.10.2009 17:00 6,7 C 77 % 1018,7 hPa 0,0 l/m 0,3 km/h N 3,0 C 6,7 C 3,6 km/h
18.10.2009 18:00 5,9 C 79 % 1019,1 hPa 0,0 l/m 0,1 km/h N 2,5 C 5,9 C 2,0 km/h
18.10.2009 19:00 4,8 C 82 % 1019,5 hPa 0,0 l/m 0,1 km/h N 2,0 C 4,8 C 2,4 km/h
18.10.2009 20:00 5,3 C 84 % 1020,0 hPa 0,0 l/m 0,9 km/h W-NW 2,8 C 5,3 C 4,8 km/h
18.10.2009 21:00 5,6 C 83 % 1020,3 hPa 0,0 l/m 2,3 km/h NW 2,9 C 5,6 C 7,6 km/h
18.10.2009 22:00 5,2 C 83 % 1020,6 hPa 0,0 l/m 2,8 km/h NW 2,6 C 5,2 C 7,7 km/h
18.10.2009 23:00 5,0 C 84 % 1020,8 hPa 0,0 l/m 2,9 km/h W-SW 2,4 C 5,0 C 10,4 km/h
Min-Datum _ 15.10.09 13.10.09 12.10.09 - 12.10.09 - 14.10.09 15.10.09 12.10.09
_ Min-Zeit 06:30 14:30 08:00 - 00:00 - 19:45 11:15 00:30
Minimum _ 1,8 C 50 % 1002,2 hPa - 0,0 km/h - -2,0 C -3,4 C 0,0 km/h
Max-Datum _ 12.10.09 18.10.09 16.10.09 12.10.09 13.10.09 - 12.10.09 12.10.09 14.10.09
_ Max-Zeit 03:15 00:15 00:30 09:30 13:00 - 09:00 03:15 23:00
Maximum _ 14,6 C 92 % 1020,9 hPa 2,7 l/m 20,3 km/h
N-NW
- 9,4 C 14,5 C 48,3 km/h
W-SW
Durchschnitt _ 5,9 C 74 % 1015,7 hPa #6,6 l/m 6,9 km/h NW 1,6 C 4,2 C 21,0 km/h